METAR Data
IDs: Format: Raw Decoded Include TAF

Data at: 2154 UTC 24 Mar 2019

KBGD 242151Z AUTO 00000KT 10SM CLR 18/01 A3006 RMK AO2 SLP162 T01830011
KBGD 242051Z AUTO 25003KT 10SM CLR 18/02 A3006 RMK AO2 SLP163 T01830022 56016
KBGD 241951Z AUTO VRB05KT 10SM CLR 17/03 A3007 RMK AO2 SLP168 T01720028
KBGD 241851Z AUTO 34003KT 10SM CLR 16/03 A3009 RMK AO2 SLP175 T01560028
KBGD 241751Z AUTO 07006KT 10SM CLR 15/03 A3011 RMK AO2 SLP182 T01500028 10150 20044 50003
KBGD 241651Z AUTO 12003KT 10SM CLR 13/04 A3011 RMK AO2 SLP181 T01280039
KBGD 241551Z AUTO 00000KT 10SM CLR 11/03 A3011 RMK AO2 SLP181 T01110033
KBGD 241451Z AUTO 29005KT 10SM CLR 08/02 A3010 RMK AO2 SLP180 T00830022 53014
KBGD 241351Z AUTO 27003KT 10SM CLR 07/02 A3009 RMK AO2 SLP175 T00670022
KBGD 241251Z AUTO 33004KT 10SM CLR 05/01 A3006 RMK AO2 SLP168 T00500011
KBGD 241151Z AUTO 00000KT 10SM CLR 06/02 A3006 RMK AO2 SLP160 T00560017 10111 20050 53006
KBGD 241051Z AUTO 36003KT 10SM CLR 06/02 A3004 RMK AO2 SLP156 T00610017
KBGD 240951Z AUTO VRB03KT 10SM CLR 07/02 A3004 RMK AO2 SLP155 T00670022
KBGD 240851Z AUTO 31003KT 10SM CLR 07/03 A3004 RMK AO2 SLP153 T00720028 53013
KBGD 240751Z AUTO 03008KT 10SM CLR 08/03 A3001 RMK AO2 SLP143 T00830028
KBGD 240651Z AUTO 05008KT 10SM CLR 09/03 A3000 RMK AO2 SLP142 T00940028
KBGD 240551Z AUTO 33010G15KT 10SM CLR 09/02 A2999 RMK AO2 PRESRR SLP141 T00940022 10206 20094 402060028 53016
KBGD 240451Z AUTO 15003KT 10SM CLR 12/02 A2996 RMK AO2 SLP129 T01220022
KBGD 240351Z AUTO 13006KT 10SM CLR 13/01 A2996 RMK AO2 SLP132 T01280011
KBGD 240251Z AUTO 11004KT 10SM CLR 14/01 A2994 RMK AO2 SLP129 T01440011 53012
KBGD 240151Z AUTO 09003KT 10SM CLR 16/00 A2993 RMK AO2 SLP124 T01610000
KBGD 240051Z AUTO 05005KT 10SM CLR 18/M01 A2990 RMK AO2 SLP113 T01781011
KBGD 232351Z AUTO 28004KT 10SM CLR 21/M03 A2990 RMK AO2 SLP109 T02061033 10206 20144 56008
KBGD 232251Z AUTO 24009G16KT 10SM CLR 21/M03 A2990 RMK AO2 SLP110 T02061028
KBGD 232151Z AUTO 26011G25KT 200V310 10SM CLR 20/M03 A2992 RMK AO2 SLP115 T02001028
KBGD 232051Z AUTO 26009G18KT 10SM CLR 19/M01 A2993 RMK AO2 SLP119 T01891006 56013
KBGD 231951Z AUTO 23005KT 10SM CLR 18/01 A2994 RMK AO2 SLP123 T01780006
KBGD 231851Z AUTO VRB03KT 10SM CLR 16/02 A2996 RMK AO2 SLP129 T01560022
KBGD 231751Z AUTO 06004KT 10SM CLR 14/04 A2997 RMK AO2 SLP134 T01440044 10144 20033 58011
KBGD 231651Z AUTO VRB03KT 10SM CLR 12/04 A2999 RMK AO2 SLP144 T01170044
KBGD 231551Z AUTO 32003KT 10SM CLR 08/05 A3000 RMK AO2 SLP151 T00830050
KBGD 231537Z AUTO 29003KT 10SM SCT001 07/04 A3000 RMK AO2 T00670044
KBGD 231527Z AUTO 29004KT 9SM BKN001 07/05 A3000 RMK AO2 T00670050
KBGD 231520Z AUTO 29005KT 2 1/2SM BR OVC001 07/05 A3001 RMK AO2 T00670050
KBGD 231514Z AUTO 30005KT 3/4SM BR VV001 06/05 A3001 RMK AO2 T00610050
KBGD 231459Z AUTO 28004KT 1/4SM FG VV001 06/04 A3001 RMK AO2 T00560044
KBGD 231451Z AUTO 28004KT 1/2SM FG VV001 06/04 A3001 RMK AO2 SLP155 T00560044 50010
KBGD 231448Z AUTO 29004KT 3/4SM BR VV001 06/04 A3001 RMK AO2
KBGD 231422Z AUTO 27003KT 1/4SM FG VV001 05/04 A3000 RMK AO2 T00500039
KBGD 231405Z AUTO 20003KT 1SM BR VV001 05/04 A3000 RMK AO2 T00500039
KBGD 231351Z AUTO 19003KT 1/4SM FG VV001 04/03 A3000 RMK AO2 SLP151 T00390028
KBGD 231251Z AUTO 14004KT 1/4SM FG VV001 04/03 A2998 RMK AO2 SLP144 T00440033
KBGD 231234Z AUTO 34005KT 1/4SM FG VV001 04/03 A2998 RMK AO2 T00390028
KBGD 231225Z AUTO 34010KT 3/4SM BR VV001 03/02 A2997 RMK AO2 T00330017
KBGD 231223Z AUTO 35007KT 1 3/4SM BR FEW001 03/02 A2997 RMK AO2 T00330017
KBGD 231151Z AUTO 00000KT 10SM CLR 04/02 A2995 RMK AO2 SLP132 70031 T00440022 10094 20028 53009
KBGD 231105Z AUTO 24005KT 10SM FEW001 04/02 A2994 RMK AO2 T00390022
KBGD 231057Z AUTO 22005KT 2SM BR SCT001 04/03 A2993 RMK AO2 T00390028
KBGD 231051Z AUTO 24005KT 1SM BR VV001 03/02 A2993 RMK AO2 SLP123 T00330022
KBGD 231014Z AUTO 24004KT 1/4SM FG VV001 03/02 A2992 RMK AO2 T00330022